This is the latest recevied weather packets stored in our database for station/object W3JGB. If no packets are shown the sender has not sent any weather packets the latest 1 day(s).
| Time | Temp. | Humidity | Pressure | Rain* | Wind** | Luminosity | Snow |
|---|---|---|---|---|---|---|---|
| 1836274713 | 13.89° C | 91% | 1020.7 hPa | 0 mm | 0 m/s | 0 W/m² | - |
| 1836274566 | 13.89° C | 92% | 1020.7 hPa | 0 mm | 0 m/s | 0 W/m² | - |
| 1836274412 | 13.89° C | 91% | 1020.6 hPa | 0 mm | 0 m/s | 0 W/m² | - |
| 1836274265 | 13.89° C | 92% | 1020.6 hPa | 0 mm | 0 m/s | 0 W/m² | - |
| 1836274109 | 13.89° C | 91% | 1020.6 hPa | 0 mm | 0 m/s | 0 W/m² | - |
| 1778048369 | 12.78° C | 96% | 1006.9 hPa | 0 mm | 0 m/s | 0 W/m² | - |
| 1778048066 | 13.33° C | 96% | 1007.2 hPa | 0 mm | 0 m/s | 0 W/m² | - |
| 1778047764 | 12.78° C | 95% | 1007.1 hPa | 0 mm | 0 m/s | 0 W/m² | - |
| 1778047462 | 12.78° C | 95% | 1007.2 hPa | 0 mm | 0 m/s | 0 W/m² | - |
| 1778047159 | 12.78° C | 96% | 1007.2 hPa | 0 mm | 0 m/s | 0 W/m² | - |
| 1778046855 | 12.78° C | 96% | 1007.1 hPa | 0 mm | 0 m/s | 0 W/m² | - |
| 1778046552 | 12.78° C | 96% | 1007.2 hPa | 0 mm | 0 m/s | 0 W/m² | - |
| 1778046249 | 12.78° C | 96% | 1007.3 hPa | 0 mm | 0 m/s | 0 W/m² | - |
| 1778045945 | 12.78° C | 96% | 1007.7 hPa | 0 mm | 0 m/s | 0 W/m² | - |
| 1778045644 | 12.78° C | 96% | 1007.5 hPa | 0 mm | 0 m/s | 0 W/m² | - |
| 1778045342 | 12.78° C | 96% | 1007.6 hPa | 0 mm | 0 m/s | 0 W/m² | - |
| 1778045040 | 12.78° C | 96% | 1007.4 hPa | 0 mm | 0 m/s | 0 W/m² | - |
| 1778044738 | 12.78° C | 96% | 1007.6 hPa | 0 mm | 0 m/s | 0 W/m² | - |
| 1778044434 | 12.78° C | 96% | 1007.7 hPa | 0 mm | 0 m/s | 0 W/m² | - |
| 1778044131 | 12.78° C | 96% | 1007.8 hPa | 0 mm | 0 m/s | 0 W/m² | - |
| 1778043829 | 12.22° C | 96% | 1007.7 hPa | 0 mm | 0 m/s | 0 W/m² | - |
| 1778043525 | 12.78° C | 97% | 1007.9 hPa | 0 mm | 0 m/s | 0 W/m² | - |
| 1778043222 | 12.22° C | 97% | 1007.8 hPa | 0 mm | 0.45 m/s, 355° | 0 W/m² | - |
| 1778042919 | 12.22° C | 97% | 1007.7 hPa | 0 mm | 0 m/s | 0 W/m² | - |
| 1778042617 | 12.22° C | 97% | 1007.7 hPa | 0 mm | 0 m/s | 0 W/m² | - |
* Rain latest hour (hover to see other rain measurements)
** Current wind speed in m/s (hover to see current wind gust speed)